Time;durP1;ratioP1;P1;durP2;ratioP2;P2;SDS_P1;SDS_P2;PMS_P1;PMS_P2;Temp;Humidity;BMP_temperature;BMP_pressure;BME280_temperature;BME280_humidity;BME280_pressure;Samples;Min_cycle;Max_cycle;Signal;HPM_P1;HPM_P2
2022/08/29 00:00:36;;;;;;;31.67;15.40;;;;;;;22.61;nan;100267.09;5065972;28;20029;-72
2022/08/29 00:03:03;;;;;;;33.65;15.27;;;;;;;22.52;nan;100234.06;5073997;28;20080;-72
2022/08/29 00:05:32;;;;;;;27.30;13.90;;;;;;;22.58;nan;100262.38;5053878;28;20723;-73
2022/08/29 00:08:00;;;;;;;30.65;15.00;;;;;;;22.52;nan;100234.84;5064572;28;20024;-72
2022/08/29 00:10:27;;;;;;;33.28;14.98;;;;;;;22.48;nan;100267.97;5067945;28;20039;-72
2022/08/29 00:12:52;;;;;;;34.63;15.15;;;;;;;22.39;nan;100291.31;5070114;28;20551;-73
2022/08/29 00:15:19;;;;;;;35.78;14.80;;;;;;;22.37;nan;100280.88;5064380;28;20045;-68
2022/08/29 00:17:45;;;;;;;36.70;15.05;;;;;;;22.32;nan;100258.75;5069513;28;20024;-69
2022/08/29 00:20:15;;;;;;;39.60;14.75;;;;;;;22.26;nan;100274.16;5065986;28;20115;-68
2022/08/29 00:22:40;;;;;;;30.45;15.23;;;;;;;22.21;nan;100260.88;5068808;28;20609;-69
2022/08/29 00:25:07;;;;;;;32.95;14.23;;;;;;;22.18;nan;100310.53;5072405;28;20048;-68
2022/08/29 00:27:33;;;;;;;34.40;15.93;;;;;;;21.95;nan;100312.41;5070634;28;20021;-69
2022/08/29 00:29:59;;;;;;;31.70;16.63;;;;;;;21.88;nan;100290.59;5073615;28;20034;-73
2022/08/29 00:32:24;;;;;;;27.73;17.08;;;;;;;21.67;nan;100253.53;5073421;28;20078;-73
2022/08/29 00:34:50;;;;;;;25.98;16.60;;;;;;;21.58;nan;100255.34;5068541;28;20024;-73
2022/08/29 00:37:15;;;;;;;37.83;17.80;;;;;;;21.65;nan;100281.72;5064150;28;20024;-73
2022/08/29 00:39:41;;;;;;;32.10;18.10;;;;;;;21.62;nan;100277.78;5074573;28;20031;-73
2022/08/29 00:42:06;;;;;;;29.95;17.75;;;;;;;21.47;nan;100248.63;5054325;28;20029;-73
2022/08/29 00:44:32;;;;;;;31.30;18.27;;;;;;;21.58;nan;100327.69;5062277;28;20024;-73
2022/08/29 00:47:04;;;;;;;30.42;18.52;;;;;;;21.36;nan;100306.97;5064143;28;20135;-73
2022/08/29 00:49:44;;;;;;;29.55;16.98;;;;;;;21.43;nan;100323.44;5069305;28;20040;-73
2022/08/29 00:52:18;;;;;;;32.80;16.60;;;;;;;21.40;nan;100320.56;5068494;28;20020;-74
2022/08/29 00:54:48;;;;;;;23.58;15.10;;;;;;;21.35;nan;100361.59;5049362;28;20032;-73
2022/08/29 00:57:16;;;;;;;24.25;15.65;;;;;;;21.32;nan;100364.88;5073546;28;20032;-73
2022/08/29 00:59:42;;;;;;;23.88;14.15;;;;;;;21.30;nan;100308.13;5071985;28;20037;-73
2022/08/29 01:02:09;;;;;;;24.30;13.48;;;;;;;21.27;nan;100300.72;5054952;28;20126;-74
2022/08/29 01:04:35;;;;;;;20.17;14.13;;;;;;;21.37;nan;100272.91;5078081;28;20032;-74
2022/08/29 01:07:00;;;;;;;21.55;13.82;;;;;;;;;;5057086;28;20379;-72
2022/08/29 01:09:27;;;;;;;22.77;13.87;;;;;;;21.40;nan;100332.06;5076198;28;20047;-72
2022/08/29 01:14:39;;;;;;;19.98;11.82;;;;;;;21.49;nan;100320.66;5074431;28;20489;-68
2022/08/29 01:17:08;;;;;;;26.23;12.63;;;;;;;21.50;nan;100332.94;5065342;28;20032;-68
2022/08/29 01:19:56;;;;;;;14.80;11.40;;;;;;;21.52;nan;100331.56;5075455;28;20044;-68
2022/08/29 01:22:59;;;;;;;22.95;12.00;;;;;;;21.55;nan;100330.97;5067915;28;20067;-68
2022/08/29 01:25:30;;;;;;;16.08;11.40;;;;;;;21.58;nan;100335.72;5066148;28;20075;-68
2022/08/29 01:28:05;;;;;;;22.67;11.98;;;;;;;21.58;nan;100348.34;5074807;28;20028;-67
2022/08/29 01:30:31;;;;;;;18.90;11.80;;;;;;;21.53;nan;100353.81;5069311;28;20032;-69
2022/08/29 01:32:56;;;;;;;25.17;11.45;;;;;;;21.56;nan;100362.03;5067946;28;20090;-73
2022/08/29 01:35:23;;;;;;;20.42;12.05;;;;;;;21.51;nan;100337.25;5068173;28;20029;-72
2022/08/29 01:37:49;;;;;;;23.73;11.90;;;;;;;21.54;nan;100366.09;5074113;28;20063;-72
2022/08/29 01:40:14;;;;;;;21.05;12.13;;;;;;;21.52;nan;100360.25;5070955;28;20448;-73
2022/08/29 01:42:40;;;;;;;18.90;10.88;;;;;;;;;;5073379;28;20033;-73
2022/08/29 01:45:06;;;;;;;20.65;10.80;;;;;;;21.54;nan;100374.13;5073451;28;20062;-73
2022/08/29 01:47:34;;;;;;;21.67;10.90;;;;;;;21.53;nan;100365.31;5069161;28;20031;-72
2022/08/29 01:50:00;;;;;;;21.38;10.73;;;;;;;21.52;nan;100437.94;5049987;28;20029;-72
2022/08/29 01:52:26;;;;;;;18.23;10.15;;;;;;;;;;5065412;28;20198;-73
2022/08/29 01:54:51;;;;;;;20.77;10.18;;;;;;;21.53;nan;100423.47;5066745;28;20108;-72
2022/08/29 01:57:17;;;;;;;15.50;9.88;;;;;;;21.51;nan;100372.84;5073740;28;20078;-72
2022/08/29 01:59:43;;;;;;;18.15;9.82;;;;;;;;;;5034574;28;20021;-73
2022/08/29 02:02:19;;;;;;;18.13;10.07;;;;;;;21.56;nan;100321.06;5052555;28;20066;-72
2022/08/29 02:04:47;;;;;;;21.52;10.23;;;;;;;21.60;nan;100394.41;5055819;28;20289;-72
2022/08/29 02:07:16;;;;;;;17.95;10.00;;;;;;;21.60;nan;100399.75;5071487;28;20044;-73
2022/08/29 02:09:42;;;;;;;18.42;9.50;;;;;;;21.61;nan;100394.06;5049366;28;20077;-72
2022/08/29 02:12:08;;;;;;;17.88;9.45;;;;;;;21.60;nan;100448.00;5065992;28;20029;-72
2022/08/29 02:14:34;;;;;;;19.35;9.52;;;;;;;21.56;nan;100431.69;5066467;28;20055;-72
2022/08/29 02:17:01;;;;;;;14.20;8.57;;;;;;;21.61;nan;100386.03;5057640;28;20108;-73
2022/08/29 02:19:27;;;;;;;12.27;9.13;;;;;;;21.66;nan;100385.94;5074145;28;20040;-73
2022/08/29 02:21:52;;;;;;;18.90;8.55;;;;;;;21.65;nan;100378.22;5073527;28;20019;-72
2022/08/29 02:24:18;;;;;;;15.50;8.82;;;;;;;21.61;nan;100323.63;5075513;28;20351;-72
2022/08/29 02:26:43;;;;;;;18.80;7.88;;;;;;;21.62;nan;100366.22;5070867;28;20492;-73
2022/08/29 02:29:11;;;;;;;14.73;8.15;;;;;;;21.67;nan;100343.88;5047866;28;20032;-73
2022/08/29 02:31:38;;;;;;;13.93;7.53;;;;;;;21.68;nan;100358.84;5067566;28;20481;-72
2022/08/29 02:34:04;;;;;;;13.13;7.80;;;;;;;21.65;nan;100335.34;5066755;28;20471;-72
2022/08/29 02:36:30;;;;;;;14.07;7.43;;;;;;;21.60;nan;100316.69;5036839;28;20047;-73
2022/08/29 02:38:55;;;;;;;14.15;7.65;;;;;;;21.70;nan;100347.84;5052315;28;20061;-72
2022/08/29 02:41:21;;;;;;;14.70;7.72;;;;;;;21.62;nan;100363.53;5072232;28;20059;-73
2022/08/29 02:43:46;;;;;;;21.48;8.23;;;;;;;21.63;nan;100353.59;5058538;28;20031;-72
2022/08/29 02:46:14;;;;;;;14.63;8.02;;;;;;;21.67;nan;100333.16;5073859;28;20371;-73
2022/08/29 02:48:40;;;;;;;11.97;7.90;;;;;;;21.70;nan;100343.25;5073735;28;20027;-73
2022/08/29 02:51:05;;;;;;;14.85;7.70;;;;;;;21.65;nan;100335.34;5072733;28;20058;-73
2022/08/29 02:53:31;;;;;;;12.75;7.72;;;;;;;21.67;nan;100346.53;5069332;28;20155;-73
2022/08/29 02:55:57;;;;;;;13.55;7.95;;;;;;;21.64;nan;100331.06;5053457;28;20049;-73
2022/08/29 02:58:23;;;;;;;22.00;7.65;;;;;;;21.62;nan;100328.69;5064600;28;20032;-74
2022/08/29 03:00:49;;;;;;;25.45;7.32;;;;;;;21.66;nan;100336.91;5066744;28;20555;-74
2022/08/29 03:03:15;;;;;;;18.85;8.48;;;;;;;21.62;nan;100325.19;5072493;28;20028;-72
2022/08/29 03:05:40;;;;;;;19.58;7.80;;;;;;;21.69;nan;100399.84;5055851;28;20489;-73
2022/08/29 03:08:10;;;;;;;15.05;7.75;;;;;;;21.69;nan;100357.72;5072113;28;20036;-73
2022/08/29 03:10:36;;;;;;;14.75;7.78;;;;;;;21.69;nan;100349.69;5073946;28;20047;-73
2022/08/29 03:13:01;;;;;;;14.45;7.22;;;;;;;;;;5074697;28;20019;-73
2022/08/29 03:15:27;;;;;;;16.02;8.10;;;;;;;21.60;nan;100351.53;5070000;28;20090;-74
2022/08/29 03:17:53;;;;;;;16.10;7.85;;;;;;;;;;5069242;28;20037;-73
2022/08/29 03:20:20;;;;;;;12.10;7.75;;;;;;;21.66;nan;100367.16;5068488;28;20025;-73
2022/08/29 03:22:46;;;;;;;14.25;8.07;;;;;;;21.55;nan;100362.31;5067666;28;20032;-73
2022/08/29 03:25:12;;;;;;;15.80;8.05;;;;;;;21.64;nan;100379.28;5046448;28;20375;-68
2022/08/29 03:27:38;;;;;;;14.10;7.70;;;;;;;21.65;nan;100437.16;5069556;28;20027;-73
2022/08/29 03:30:05;;;;;;;11.85;7.95;;;;;;;21.63;nan;100399.94;5062377;28;20483;-73
2022/08/29 03:32:31;;;;;;;15.10;7.53;;;;;;;21.62;nan;100395.69;5051340;28;20025;-72
2022/08/29 03:34:57;;;;;;;14.70;7.78;;;;;;;21.51;nan;100374.75;5053438;28;20136;-72
2022/08/29 03:37:22;;;;;;;11.73;7.22;;;;;;;21.51;nan;100372.84;5068328;28;20028;-72
2022/08/29 03:39:48;;;;;;;11.98;7.47;;;;;;;21.59;nan;100403.50;5073533;28;20032;-72
2022/08/29 03:42:13;;;;;;;12.40;7.43;;;;;;;21.58;nan;100399.25;5068936;28;20036;-72
2022/08/29 03:44:41;;;;;;;11.60;8.00;;;;;;;21.59;nan;100408.88;5050901;28;20490;-72
2022/08/29 03:47:08;;;;;;;12.68;8.27;;;;;;;21.58;nan;100413.44;5060368;28;20020;-72
2022/08/29 03:49:33;;;;;;;10.80;7.45;;;;;;;;;;5058451;28;20501;-72
2022/08/29 03:51:59;;;;;;;12.38;7.57;;;;;;;21.54;nan;100417.81;5069985;28;20028;-72
2022/08/29 03:54:25;;;;;;;14.82;8.30;;;;;;;21.51;nan;100406.91;5075786;28;20105;-72
2022/08/29 03:56:50;;;;;;;19.13;8.63;;;;;;;21.52;nan;100409.25;5073817;28;20032;-68
2022/08/29 03:59:16;;;;;;;12.27;7.38;;;;;;;21.47;nan;100417.41;5068175;28;20104;-68
2022/08/29 04:01:42;;;;;;;14.77;8.05;;;;;;;21.52;nan;100405.78;5068208;28;20035;-68
2022/08/29 04:04:07;;;;;;;15.90;7.47;;;;;;;;;;5070234;28;20028;-69
2022/08/29 04:06:33;;;;;;;14.93;8.03;;;;;;;21.39;nan;100402.81;5073440;28;20028;-67
2022/08/29 04:08:59;;;;;;;14.32;7.72;;;;;;;21.49;nan;100423.25;5070462;28;20277;-69
2022/08/29 04:11:26;;;;;;;12.63;7.95;;;;;;;21.52;nan;100421.88;5069322;28;20593;-68
2022/08/29 04:13:53;;;;;;;15.85;8.07;;;;;;;21.52;nan;100440.63;5065837;28;20036;-68
2022/08/29 04:16:22;;;;;;;16.33;8.65;;;;;;;21.52;nan;100429.91;5068178;28;20032;-68
2022/08/29 04:18:48;;;;;;;37.83;31.25;;;;;;;21.49;nan;100380.38;5072063;28;20086;-69
2022/08/29 04:21:14;;;;;;;21.85;13.80;;;;;;;21.58;nan;100434.88;5072857;28;20030;-67
2022/08/29 04:23:40;;;;;;;13.50;8.05;;;;;;;21.59;nan;100439.13;5052255;28;20064;-68
2022/08/29 04:26:13;;;;;;;19.95;7.95;;;;;;;21.57;nan;100409.19;5073980;28;20055;-67
2022/08/29 04:28:39;;;;;;;15.98;7.63;;;;;;;21.46;nan;100423.88;5065568;28;20029;-68
2022/08/29 04:31:20;;;;;;;13.07;8.60;;;;;;;21.47;nan;100414.72;5064732;28;20028;-68
2022/08/29 04:33:51;;;;;;;14.93;8.07;;;;;;;21.56;nan;100422.88;5049377;28;20039;-68
2022/08/29 04:36:17;;;;;;;17.67;8.52;;;;;;;21.49;nan;100414.44;5054963;28;20159;-69
2022/08/29 04:38:42;;;;;;;17.33;9.02;;;;;;;21.56;nan;100438.94;5069813;28;20490;-68
2022/08/29 04:41:13;;;;;;;16.45;8.20;;;;;;;21.60;nan;100392.50;5068018;28;20029;-68
2022/08/29 04:43:44;;;;;;;14.70;8.23;;;;;;;21.62;nan;100446.59;5067518;28;20037;-69
2022/08/29 04:46:09;;;;;;;18.35;8.68;;;;;;;21.60;nan;100450.66;5071011;28;20076;-68
2022/08/29 04:48:35;;;;;;;16.25;8.82;;;;;;;21.61;nan;100447.69;5064888;28;20024;-69
2022/08/29 04:51:00;;;;;;;13.85;9.25;;;;;;;21.62;nan;100489.47;5067778;28;20413;-69
2022/08/29 04:53:27;;;;;;;19.02;9.45;;;;;;;21.64;nan;100447.09;5054348;28;20037;-69
2022/08/29 04:55:58;;;;;;;18.02;8.52;;;;;;;21.63;nan;100455.44;5072542;28;20027;-68
2022/08/29 04:58:24;;;;;;;18.25;9.65;;;;;;;21.69;nan;100464.16;5069190;28;20050;-67
2022/08/29 05:00:50;;;;;;;16.52;10.52;;;;;;;21.69;nan;100459.56;5053476;28;20013;-73
2022/08/29 05:03:16;;;;;;;20.65;10.00;;;;;;;21.70;nan;100519.38;5071532;28;20052;-72
2022/08/29 05:05:42;;;;;;;17.65;10.30;;;;;;;21.68;nan;100484.81;5054501;28;20035;-74
2022/08/29 05:08:07;;;;;;;19.25;10.68;;;;;;;;;;5071736;28;20025;-73
2022/08/29 05:10:32;;;;;;;18.80;9.63;;;;;;;21.70;nan;100498.72;5053656;28;20446;-73
2022/08/29 05:12:58;;;;;;;20.77;8.85;;;;;;;21.68;nan;100487.47;5070212;28;20024;-73
2022/08/29 05:15:23;;;;;;;17.20;8.98;;;;;;;21.69;nan;100499.00;5070587;28;20406;-73
2022/08/29 05:17:50;;;;;;;19.33;9.27;;;;;;;21.55;nan;100539.97;5070548;28;20099;-73
2022/08/29 05:20:16;;;;;;;18.70;8.82;;;;;;;21.68;nan;100511.59;5070234;28;20772;-72
2022/08/29 05:22:42;;;;;;;16.48;9.48;;;;;;;21.67;nan;100528.78;5069462;28;20077;-72
2022/08/29 05:25:09;;;;;;;17.27;9.20;;;;;;;21.66;nan;100511.09;5064554;28;20382;-68
2022/08/29 05:27:35;;;;;;;14.57;8.63;;;;;;;21.62;nan;100507.41;5065392;28;20120;-68
2022/08/29 05:30:02;;;;;;;18.35;9.70;;;;;;;21.66;nan;100513.78;5068933;28;20533;-67
2022/08/29 05:32:28;;;;;;;26.95;9.63;;;;;;;21.65;nan;100506.84;5051805;28;20466;-68
2022/08/29 05:34:54;;;;;;;17.83;9.65;;;;;;;21.63;nan;100479.53;5053017;28;20035;-69
2022/08/29 05:37:21;;;;;;;18.17;9.52;;;;;;;21.67;nan;100512.72;5069226;28;20025;-68
2022/08/29 05:39:48;;;;;;;16.95;9.93;;;;;;;21.66;nan;100516.47;5070050;28;20111;-68
2022/08/29 05:42:15;;;;;;;16.13;9.45;;;;;;;21.62;nan;100587.81;5065543;28;20020;-67
2022/08/29 05:44:41;;;;;;;11.52;8.60;;;;;;;21.63;nan;100498.31;5067487;28;20632;-68
2022/08/29 05:47:09;;;;;;;18.27;9.27;;;;;;;21.62;nan;100567.19;5066782;28;20031;-68
2022/08/29 05:49:40;;;;;;;15.03;8.57;;;;;;;21.67;nan;100526.91;5069905;28;20032;-68
2022/08/29 05:52:06;;;;;;;18.23;9.18;;;;;;;21.69;nan;100539.97;5066440;28;20348;-67
2022/08/29 05:54:34;;;;;;;23.27;9.65;;;;;;;21.71;nan;100542.38;5054300;28;20028;-71
2022/08/29 05:57:00;;;;;;;14.32;8.70;;;;;;;21.72;nan;100520.66;5066620;28;20026;-68
2022/08/29 05:59:26;;;;;;;23.70;9.90;;;;;;;21.74;nan;100514.97;5060434;28;20497;-68
2022/08/29 06:01:51;;;;;;;12.60;9.00;;;;;;;21.75;nan;100519.25;5069318;28;20024;-67
2022/08/29 06:04:17;;;;;;;21.10;9.38;;;;;;;21.75;nan;100511.22;5067185;28;20029;-67
2022/08/29 06:06:43;;;;;;;17.10;9.23;;;;;;;21.85;nan;100554.69;5070280;28;20028;-68
2022/08/29 06:09:10;;;;;;;20.13;9.75;;;;;;;21.83;nan;100540.78;5067224;28;20122;-69
2022/08/29 06:11:35;;;;;;;15.15;9.02;;;;;;;21.76;nan;100508.22;5065899;28;20086;-68
2022/08/29 06:14:01;;;;;;;18.48;9.25;;;;;;;21.92;nan;100545.47;5048660;28;20049;-72
2022/08/29 06:16:28;;;;;;;19.58;9.68;;;;;;;21.84;nan;100529.00;5067987;28;20040;-72
2022/08/29 06:18:54;;;;;;;16.52;9.30;;;;;;;21.98;nan;100552.31;5063406;28;20023;-72
2022/08/29 06:21:19;;;;;;;12.98;9.68;;;;;;;21.99;nan;100544.00;5069133;28;20391;-71
2022/08/29 06:23:48;;;;;;;17.85;9.63;;;;;;;21.95;nan;100526.13;5042958;28;20032;-70
2022/08/29 06:26:14;;;;;;;16.50;9.33;;;;;;;22.03;nan;100568.34;5050504;28;20017;-69
2022/08/29 06:28:44;;;;;;;13.43;8.68;;;;;;;22.03;nan;100560.28;5060709;28;20069;-68
2022/08/29 06:31:14;;;;;;;16.05;9.00;;;;;;;22.04;nan;100584.13;5069845;28;20036;-68
2022/08/29 06:33:40;;;;;;;14.32;8.18;;;;;;;22.03;nan;100560.28;5044738;28;20100;-69
2022/08/29 06:36:07;;;;;;;15.30;8.45;;;;;;;22.06;nan;100570.41;5063394;28;20111;-68
2022/08/29 06:38:33;;;;;;;14.27;8.63;;;;;;;22.08;nan;100574.38;5065068;28;20017;-68
2022/08/29 06:41:03;;;;;;;17.92;8.05;;;;;;;22.06;nan;100565.84;5061789;28;20066;-67
2022/08/29 06:43:29;;;;;;;17.17;9.05;;;;;;;22.06;nan;100576.56;5062070;28;20021;-68
2022/08/29 06:45:54;;;;;;;18.73;8.40;;;;;;;22.07;nan;100578.16;5044384;28;20028;-67
2022/08/29 06:48:19;;;;;;;18.20;8.50;;;;;;;22.09;nan;100578.66;5066579;28;20501;-67
2022/08/29 06:50:45;;;;;;;13.40;9.18;;;;;;;22.07;nan;100580.81;5069575;28;20035;-75
2022/08/29 06:53:10;;;;;;;13.88;9.00;;;;;;;22.05;nan;100595.63;5050047;28;20033;-67
2022/08/29 06:55:37;;;;;;;21.20;10.90;;;;;;;22.11;nan;100609.75;5068922;28;20063;-67
2022/08/29 06:58:03;;;;;;;17.17;10.55;;;;;;;22.11;nan;100590.97;5066923;28;20044;-67
2022/08/29 07:00:28;;;;;;;15.38;8.57;;;;;;;22.09;nan;100593.94;5068201;28;20054;-68
2022/08/29 07:02:54;;;;;;;13.98;9.35;;;;;;;22.05;nan;100603.69;5064984;28;20026;-68
2022/08/29 07:05:23;;;;;;;16.30;8.55;;;;;;;22.03;nan;100643.44;5065524;28;20042;-69
2022/08/29 07:07:50;;;;;;;17.23;8.07;;;;;;;22.09;nan;100607.34;5049477;28;20012;-69
2022/08/29 07:10:17;;;;;;;14.00;7.53;;;;;;;22.06;nan;100651.66;5064260;28;20372;-68
2022/08/29 07:12:42;;;;;;;14.15;8.65;;;;;;;22.03;nan;100621.97;5068204;28;20498;-67
2022/08/29 07:15:08;;;;;;;13.60;7.63;;;;;;;22.02;nan;100596.22;5067359;28;20052;-68
2022/08/29 07:17:34;;;;;;;14.25;8.40;;;;;;;22.06;nan;100613.31;5067648;28;20112;-68
2022/08/29 07:19:59;;;;;;;18.70;8.73;;;;;;;22.03;nan;100598.63;5065243;28;20043;-68
2022/08/29 07:22:27;;;;;;;12.35;7.93;;;;;;;22.05;nan;100590.25;5060850;28;20135;-73
2022/08/29 07:24:54;;;;;;;11.00;8.43;;;;;;;22.08;nan;100611.16;5059758;28;20108;-73
2022/08/29 07:27:20;;;;;;;15.82;8.65;;;;;;;22.05;nan;100607.19;5065524;28;20024;-66
2022/08/29 07:29:46;;;;;;;13.20;8.73;;;;;;;22.12;nan;100659.63;5065341;28;20069;-68
2022/08/29 07:32:11;;;;;;;19.40;9.05;;;;;;;22.13;nan;100653.97;5067126;28;20016;-71
2022/08/29 07:34:37;;;;;;;17.70;9.60;;;;;;;22.17;nan;100617.41;5048792;28;20529;-73
2022/08/29 07:37:03;;;;;;;16.05;9.77;;;;;;;22.20;nan;100614.16;5048363;28;20512;-72
2022/08/29 07:39:30;;;;;;;17.42;9.75;;;;;;;22.20;nan;100614.16;5068689;28;20025;-66
2022/08/29 07:41:57;;;;;;;14.80;9.90;;;;;;;22.20;nan;100573.09;5062498;28;20039;-67
2022/08/29 07:44:24;;;;;;;13.98;10.27;;;;;;;22.28;nan;100636.81;5065343;28;20479;-67
2022/08/29 07:46:57;;;;;;;16.20;9.57;;;;;;;22.35;nan;100612.28;5041164;28;20093;-68
2022/08/29 07:49:27;;;;;;;15.88;9.77;;;;;;;22.37;nan;100623.50;5065823;28;20043;-66
2022/08/29 07:51:54;;;;;;;12.20;9.55;;;;;;;22.40;nan;100633.63;5047379;28;20032;-73
2022/08/29 07:54:21;;;;;;;13.90;9.43;;;;;;;22.43;nan;100643.75;5067169;28;20059;-69
2022/08/29 07:56:48;;;;;;;14.20;9.85;;;;;;;22.50;nan;100634.22;5048515;28;20135;-68
2022/08/29 07:59:14;;;;;;;13.60;8.88;;;;;;;22.61;nan;100637.50;5064789;28;20025;-73
2022/08/29 08:01:40;;;;;;;16.58;10.15;;;;;;;22.65;nan;100640.38;5068594;28;20027;-69
2022/08/29 08:04:06;;;;;;;14.68;8.88;;;;;;;;;;5067042;28;20032;-67
2022/08/29 08:06:33;;;;;;;16.08;9.65;;;;;;;22.85;nan;100641.84;5065566;28;20029;-66
2022/08/29 08:08:58;;;;;;;15.38;9.18;;;;;;;22.90;nan;100633.69;5064907;28;20012;-68
2022/08/29 08:11:26;;;;;;;14.63;9.27;;;;;;;22.92;nan;100634.97;5065394;28;20044;-68
2022/08/29 08:13:52;;;;;;;15.13;10.55;;;;;;;;;;5065930;28;20379;-68
2022/08/29 08:16:20;;;;;;;14.13;9.32;;;;;;;23.03;nan;100693.84;5064709;28;20046;-68
2022/08/29 08:18:46;;;;;;;14.02;8.90;;;;;;;23.07;nan;100649.97;5050953;28;20367;-67
2022/08/29 08:21:12;;;;;;;16.27;9.70;;;;;;;23.06;nan;100651.09;5065912;28;20650;-73
2022/08/29 08:23:41;;;;;;;15.70;9.57;;;;;;;23.07;nan;100659.94;5050802;28;20036;-73
2022/08/29 08:26:07;;;;;;;;;;;;;;;23.09;nan;100644.31;5059817;28;20472;-68
2022/08/29 08:28:33;;;;;;;15.50;9.75;;;;;;;23.13;nan;100650.69;5061836;28;19913;-68
2022/08/29 08:31:00;;;;;;;16.50;9.80;;;;;;;23.09;nan;100622.81;5064870;28;20056;-68
2022/08/29 08:33:26;;;;;;;16.88;10.70;;;;;;;23.17;nan;100642.78;5065341;28;20024;-68
2022/08/29 08:35:52;;;;;;;14.75;10.13;;;;;;;23.13;nan;100629.97;5065647;28;20020;-74
2022/08/29 08:38:17;;;;;;;20.00;10.68;;;;;;;23.17;nan;100670.44;5068118;28;20039;-67
2022/08/29 08:40:52;;;;;;;15.93;10.48;;;;;;;23.19;nan;100670.94;5060352;28;20124;-73
2022/08/29 08:43:23;;;;;;;17.77;10.88;;;;;;;23.18;nan;100657.81;5053588;28;20028;-73
2022/08/29 08:45:49;;;;;;;13.20;10.43;;;;;;;23.16;nan;100635.84;5055105;28;20035;-67
2022/08/29 08:48:23;;;;;;;17.45;10.70;;;;;;;23.26;nan;100676.69;5060635;28;20025;-69
2022/08/29 08:51:06;;;;;;;14.98;10.63;;;;;;;23.30;nan;100644.66;5067369;28;20031;-68
2022/08/29 08:53:38;;;;;;;16.52;11.18;;;;;;;23.34;nan;100661.72;5048656;28;20085;-67
2022/08/29 08:56:29;;;;;;;15.30;10.80;;;;;;;23.39;nan;100677.72;5064777;28;20363;-66
2022/08/29 08:59:24;;;;;;;18.35;11.93;;;;;;;23.34;nan;100704.72;5065608;28;20033;-64
2022/08/29 09:02:28;;;;;;;15.88;10.98;;;;;;;23.36;nan;100697.16;5050359;28;20028;-67
2022/08/29 09:05:20;;;;;;;16.08;10.57;;;;;;;23.46;nan;100661.97;5047042;28;20025;-68
2022/08/29 09:08:10;;;;;;;17.40;11.20;;;;;;;23.54;nan;100660.47;5068459;28;20421;-67
2022/08/29 09:10:42;;;;;;;15.20;11.35;;;;;;;23.56;nan;100642.16;5065829;28;20499;-67
2022/08/29 09:13:29;;;;;;;19.65;10.75;;;;;;;23.60;nan;100645.00;5054252;28;20428;-67
2022/08/29 09:15:58;;;;;;;14.98;11.05;;;;;;;23.61;nan;100663.53;5066248;28;20044;-69
2022/08/29 09:18:37;;;;;;;15.02;10.63;;;;;;;23.69;nan;100653.94;5066601;28;20036;-66
2022/08/29 09:21:05;;;;;;;17.92;10.45;;;;;;;23.68;nan;100652.31;5070949;28;20429;-68
2022/08/29 09:23:40;;;;;;;18.17;9.93;;;;;;;23.81;nan;100648.03;5062524;28;20032;-67
2022/08/29 09:26:06;;;;;;;18.77;10.73;;;;;;;23.84;nan;100596.31;5067731;28;20016;-68
2022/08/29 09:28:31;;;;;;;17.15;10.82;;;;;;;23.89;nan;100570.06;5068253;28;20038;-67
2022/08/29 09:31:33;;;;;;;14.13;10.10;;;;;;;24.00;nan;100640.53;5052670;28;20097;-73
2022/08/29 09:34:02;;;;;;;17.25;10.02;;;;;;;24.09;nan;100629.81;4986824;28;20030;-74
2022/08/29 09:36:43;;;;;;;14.93;9.95;;;;;;;24.18;nan;100647.59;4988491;28;20065;-73
2022/08/29 09:39:14;;;;;;;16.90;10.65;;;;;;;24.27;nan;100639.53;4989745;28;20556;-68
2022/08/29 09:41:40;;;;;;;17.38;10.63;;;;;;;24.30;nan;100587.78;4988044;28;20049;-69
2022/08/29 09:44:12;;;;;;;16.77;9.43;;;;;;;24.40;nan;100632.47;4989398;28;20022;-67
2022/08/29 09:46:38;;;;;;;12.77;9.10;;;;;;;24.46;nan;100657.34;4989626;28;20030;-68
2022/08/29 09:49:04;;;;;;;15.38;9.63;;;;;;;24.49;nan;100654.81;4979109;28;20228;-68
2022/08/29 09:51:35;;;;;;;19.40;10.13;;;;;;;24.51;nan;100659.91;4988004;28;20046;-73
2022/08/29 09:54:21;;;;;;;15.38;9.70;;;;;;;24.51;nan;100651.84;4981381;28;20062;-72
2022/08/29 09:57:02;;;;;;;13.10;10.00;;;;;;;24.53;nan;100645.03;4988976;28;20069;-73
2022/08/29 09:59:36;;;;;;;16.35;9.50;;;;;;;24.56;nan;100640.91;4986621;28;20045;-72
2022/08/29 10:02:26;;;;;;;12.07;8.60;;;;;;;24.56;nan;100630.13;4988565;28;20121;-73
2022/08/29 10:04:55;;;;;;;17.95;9.70;;;;;;;24.59;nan;100622.25;4986070;28;20113;-73
2022/08/29 10:07:30;;;;;;;13.32;9.25;;;;;;;24.62;nan;100628.91;5005039;28;20091;-73
2022/08/29 10:10:01;;;;;;;17.75;9.60;;;;;;;24.64;nan;100645.53;5067207;28;20029;-73
2022/08/29 10:12:37;;;;;;;13.88;9.65;;;;;;;24.64;nan;100624.00;5064510;28;20077;-73
2022/08/29 10:15:07;;;;;;;15.85;9.18;;;;;;;24.61;nan;100659.59;5046322;28;20037;-74
2022/08/29 10:18:22;;;;;;;14.63;9.40;;;;;;;24.64;nan;100626.69;5041079;28;20061;-73
2022/08/29 10:20:55;;;;;;;13.23;9.25;;;;;;;24.56;nan;100655.16;5006539;28;20029;-73
2022/08/29 10:23:41;;;;;;;15.95;9.82;;;;;;;24.61;nan;100630.81;5005811;28;20778;-73
2022/08/29 10:26:23;;;;;;;16.73;10.63;;;;;;;24.62;nan;100629.69;4985453;28;20113;-69
2022/08/29 10:28:54;;;;;;;15.68;9.88;;;;;;;24.58;nan;100630.63;5007219;28;20405;-74
2022/08/29 10:31:33;;;;;;;17.45;9.93;;;;;;;24.60;nan;100664.22;5006732;28;20030;-74
2022/08/29 10:34:41;;;;;;;13.60;10.13;;;;;;;24.63;nan;100609.72;5003162;28;20396;-74
2022/08/29 10:37:16;;;;;;;18.40;9.32;;;;;;;24.62;nan;100601.97;4930294;29;20048;-74
2022/08/29 10:40:00;;;;;;;14.25;10.35;;;;;;;24.66;nan;100613.69;4923548;29;20521;-67
2022/08/29 10:42:30;;;;;;;13.85;10.43;;;;;;;24.71;nan;100600.09;4925929;29;20196;-67
2022/08/29 10:45:25;;;;;;;;;;;;;;;24.75;nan;100606.41;4915471;29;20039;-68
2022/08/29 10:48:00;;;;;;;15.27;9.57;;;;;;;24.79;nan;100615.47;4925128;29;19915;-67
2022/08/29 10:50:35;;;;;;;13.40;10.07;;;;;;;24.82;nan;100622.09;4925734;29;20565;-68
2022/08/29 10:53:10;;;;;;;17.33;10.25;;;;;;;24.77;nan;100655.38;4930719;29;20110;-67
2022/08/29 10:55:56;;;;;;;16.15;9.70;;;;;;;24.86;nan;100611.50;4983981;28;20064;-68
2022/08/29 10:58:25;;;;;;;15.63;10.02;;;;;;;24.94;nan;100619.59;4982024;28;20038;-67
2022/08/29 11:01:09;;;;;;;17.85;9.90;;;;;;;24.93;nan;100556.06;4978743;28;20149;-76
2022/08/29 11:03:48;;;;;;;16.38;10.35;;;;;;;25.05;nan;100601.22;4972321;28;20026;-72
2022/08/29 11:06:31;;;;;;;17.48;10.02;;;;;;;25.08;nan;100592.50;4977076;28;20038;-71
2022/08/29 11:09:03;;;;;;;18.17;10.10;;;;;;;25.21;nan;100599.66;4985874;28;20105;-71
2022/08/29 11:11:31;;;;;;;14.90;9.70;;;;;;;25.30;nan;100613.09;4986437;28;20188;-73
2022/08/29 11:14:01;;;;;;;13.73;8.93;;;;;;;25.30;nan;100583.47;5032466;28;20032;-71
2022/08/29 11:16:45;;;;;;;13.30;9.38;;;;;;;25.48;nan;100589.63;5065053;28;20044;-69
2022/08/29 11:19:20;;;;;;;14.68;9.90;;;;;;;25.58;nan;100626.25;5062629;28;20517;-68
2022/08/29 11:22:08;;;;;;;14.93;8.65;;;;;;;25.63;nan;100581.00;5061591;28;20044;-68
2022/08/29 11:24:35;;;;;;;12.23;9.18;;;;;;;25.74;nan;100581.47;5044734;28;20024;-69
2022/08/29 11:27:13;;;;;;;13.52;8.98;;;;;;;25.75;nan;100609.22;5067620;28;20127;-71
2022/08/29 11:29:49;;;;;;;12.70;9.02;;;;;;;25.86;nan;100578.13;5062919;28;20491;-72
2022/08/29 11:32:52;;;;;;;14.20;9.43;;;;;;;25.91;nan;100556.34;5064735;28;20094;-72
2022/08/29 11:35:25;;;;;;;16.25;9.10;;;;;;;25.93;nan;100546.03;5064410;28;20110;-72
2022/08/29 11:38:06;;;;;;;12.80;8.85;;;;;;;25.94;nan;100595.38;5064514;28;20584;-71
2022/08/29 11:40:41;;;;;;;13.07;8.82;;;;;;;26.02;nan;100565.66;5064718;28;20419;-72
2022/08/29 11:43:13;;;;;;;14.77;8.75;;;;;;;26.04;nan;100544.53;5062762;28;20374;-72
2022/08/29 11:45:41;;;;;;;13.85;8.85;;;;;;;26.13;nan;100565.28;5062637;28;20025;-72
2022/08/29 11:48:16;;;;;;;15.27;8.73;;;;;;;26.21;nan;100540.16;5064703;28;20021;-71
2022/08/29 11:50:42;;;;;;;11.00;8.20;;;;;;;26.12;nan;100534.78;5064008;28;20035;-72